Time;durP1;ratioP1;P1;durP2;ratioP2;P2;SDS_P1;SDS_P2;PMS_P1;PMS_P2;Temp;Humidity;BMP_temperature;BMP_pressure;BME280_temperature;BME280_humidity;BME280_pressure;Samples;Min_cycle;Max_cycle;Signal;HPM_P1;HPM_P2
2020/12/24 06:02:16;;;;;;;;;;;;;;;;;;5068126;28;20349;-60
2020/12/24 06:04:43;;;;;;;14.55;2.55;;;;;;;;;;5053186;28;19919;-60
2020/12/24 06:07:09;;;;;;;13.38;1.83;;;;;;;;;;5052261;28;20040;-60
2020/12/24 06:09:37;;;;;;;14.20;3.25;;;;;;;;;;5052245;28;20075;-60
2020/12/24 06:12:16;;;;;;;9.95;1.23;;;;;;;;;;5052523;28;20064;-60
2020/12/24 06:14:47;;;;;;;10.10;1.70;;;;;;;;;;5051079;28;20037;-60
2020/12/24 06:17:13;;;;;;;13.27;2.65;;;;;;;;;;5047777;28;20079;-60
2020/12/24 06:19:40;;;;;;;9.90;1.92;;;;;;;;;;5051345;28;20453;-60
2020/12/24 06:22:07;;;;;;;10.75;2.20;;;;;;;;;;5051368;28;20048;-61
2020/12/24 06:24:33;;;;;;;16.13;2.20;;;;;;;;;;5052529;28;20029;-60
2020/12/24 06:27:02;;;;;;;11.75;2.20;;;;;;;;;;5052134;28;20026;-60
2020/12/24 06:29:30;;;;;;;10.65;2.15;;;;;;;;;;5049066;28;20064;-60
2020/12/24 06:31:56;;;;;;;11.82;2.42;;;;;;;;;;5049616;28;20033;-61
2020/12/24 06:34:26;;;;;;;11.20;2.10;;;;;;;;;;5054116;28;20052;-60
2020/12/24 06:36:53;;;;;;;11.35;1.50;;;;;;;;;;5049101;28;20033;-60
2020/12/24 06:39:39;;;;;;;12.23;1.80;;;;;;;;;;5051905;28;20601;-60
2020/12/24 06:42:05;;;;;;;13.15;2.55;;;;;;;;;;5051211;28;20037;-61
2020/12/24 06:44:48;;;;;;;8.50;2.15;;;;;;;;;;5045201;28;20029;-60
2020/12/24 06:47:17;;;;;;;12.30;2.17;;;;;;;;;;5047582;28;20445;-60
2020/12/24 06:49:44;;;;;;;9.65;1.83;;;;;;;;;;5050973;28;20033;-60
2020/12/24 06:52:10;;;;;;;11.02;1.90;;;;;;;;;;5051049;28;20476;-60
2020/12/24 06:54:38;;;;;;;12.43;2.10;;;;;;;;;;5050943;28;20516;-60
2020/12/24 06:57:23;;;;;;;12.00;2.15;;;;;;;;;;5051019;28;20323;-60
2020/12/24 07:00:09;;;;;;;11.67;2.07;;;;;;;;;;5049922;28;20059;-60
2020/12/24 07:02:35;;;;;;;14.90;1.98;;;;;;;;;;5022383;28;20068;-60
2020/12/24 07:05:01;;;;;;;11.10;1.70;;;;;;;;;;5032051;28;20065;-60
2020/12/24 07:07:44;;;;;;;11.38;1.52;;;;;;;;;;5032939;28;20446;-60
2020/12/24 07:10:30;;;;;;;15.90;2.28;;;;;;;;;;5030083;28;20142;-60
2020/12/24 07:12:56;;;;;;;13.57;2.42;;;;;;;;;;5029322;28;20034;-60
2020/12/24 07:15:23;;;;;;;8.38;1.40;;;;;;;;;;5031469;28;20041;-60
2020/12/24 07:17:50;;;;;;;7.90;1.60;;;;;;;;;;5031739;28;20037;-60
2020/12/24 07:20:18;;;;;;;13.60;1.88;;;;;;;;;;5031202;28;20038;-60
2020/12/24 07:22:46;;;;;;;3.55;1.40;;;;;;;;;;5033308;28;20026;-60
2020/12/24 07:25:12;;;;;;;8.95;1.40;;;;;;;;;;5031315;28;20048;-60
2020/12/24 07:27:48;;;;;;;8.75;1.35;;;;;;;;;;5031213;28;20026;-59
2020/12/24 07:30:14;;;;;;;8.73;1.85;;;;;;;;;;5031484;28;20037;-60
2020/12/24 07:32:41;;;;;;;13.30;2.13;;;;;;;;;;5030939;28;20044;-60
2020/12/24 07:35:08;;;;;;;6.30;1.80;;;;;;;;;;5030897;28;20398;-60
2020/12/24 07:37:36;;;;;;;12.07;1.27;;;;;;;;;;5033065;28;20037;-60
2020/12/24 07:40:02;;;;;;;8.43;1.20;;;;;;;;;;5031036;28;20018;-60
2020/12/24 07:42:28;;;;;;;9.73;1.70;;;;;;;;;;5030490;28;20060;-60
2020/12/24 07:44:54;;;;;;;12.43;1.45;;;;;;;;;;5030732;28;20047;-60
2020/12/24 07:47:21;;;;;;;6.60;1.60;;;;;;;;;;5029408;28;20474;-60
2020/12/24 07:49:50;;;;;;;8.60;1.45;;;;;;;;;;5033149;28;20505;-61
2020/12/24 07:52:17;;;;;;;11.13;1.63;;;;;;;;;;5031414;28;20120;-61
2020/12/24 07:54:43;;;;;;;14.88;2.20;;;;;;;;;;5030625;28;20506;-60
2020/12/24 07:57:09;;;;;;;15.07;2.30;;;;;;;;;;5030671;28;20044;-61
2020/12/24 07:59:35;;;;;;;13.50;1.75;;;;;;;;;;5030493;28;20044;-60
2020/12/24 08:02:04;;;;;;;9.13;2.17;;;;;;;;;;5030920;28;20084;-60
2020/12/24 08:04:31;;;;;;;15.13;2.85;;;;;;;;;;5032496;28;20029;-61
2020/12/24 08:06:57;;;;;;;11.60;3.47;;;;;;;;;;5030989;28;20029;-60
2020/12/24 08:09:23;;;;;;;18.85;3.03;;;;;;;;;;5031162;28;20084;-60
2020/12/24 08:11:53;;;;;;;14.07;3.53;;;;;;;;;;5031225;28;20132;-60
2020/12/24 08:14:23;;;;;;;15.18;2.40;;;;;;;;;;5014482;28;20021;-60
2020/12/24 08:16:49;;;;;;;9.57;2.42;;;;;;;;;;5028342;28;20407;-61
2020/12/24 08:19:19;;;;;;;8.48;1.48;;;;;;;;;;5028978;28;20494;-60
2020/12/24 08:21:56;;;;;;;6.13;1.27;;;;;;;;;;5030206;28;20171;-60
2020/12/24 08:24:23;;;;;;;10.07;1.27;;;;;;;;;;5030321;28;20045;-60
2020/12/24 08:26:49;;;;;;;6.90;1.45;;;;;;;;;;5029051;28;20095;-60
2020/12/24 08:29:16;;;;;;;6.07;1.15;;;;;;;;;;5029937;28;20077;-61
2020/12/24 08:31:42;;;;;;;4.75;1.13;;;;;;;;;;5031362;28;20045;-60
2020/12/24 08:34:09;;;;;;;12.05;1.70;;;;;;;;;;5029211;28;20033;-60
2020/12/24 08:37:01;;;;;;;9.77;2.33;;;;;;;;;;5031430;28;20022;-60
2020/12/24 08:39:29;;;;;;;9.77;1.65;;;;;;;;;;5029651;28;20044;-60
2020/12/24 08:41:56;;;;;;;17.17;3.13;;;;;;;;;;5031570;28;20073;-60
2020/12/24 08:44:22;;;;;;;9.93;1.92;;;;;;;;;;5030591;28;20025;-60
2020/12/24 08:47:01;;;;;;;12.27;1.80;;;;;;;;;;5024932;28;20529;-60
2020/12/24 08:49:27;;;;;;;12.15;2.25;;;;;;;;;;5030961;28;20037;-60
2020/12/24 08:52:09;;;;;;;14.60;2.05;;;;;;;;;;5030673;28;20029;-60
2020/12/24 08:54:35;;;;;;;9.93;2.40;;;;;;;;;;5030775;28;20022;-60
2020/12/24 08:57:03;;;;;;;17.33;2.88;;;;;;;;;;5031078;28;20490;-61
2020/12/24 08:59:29;;;;;;;15.00;1.92;;;;;;;;;;5030613;28;20383;-60
2020/12/24 09:01:58;;;;;;;21.95;2.92;;;;;;;;;;5031080;28;20053;-60
2020/12/24 09:04:25;;;;;;;11.00;1.65;;;;;;;;;;5030807;28;20504;-60
2020/12/24 09:06:51;;;;;;;12.23;1.77;;;;;;;;;;5030677;28;20032;-60
2020/12/24 09:09:24;;;;;;;14.40;1.98;;;;;;;;;;5030142;28;20025;-60
2020/12/24 09:11:51;;;;;;;17.25;2.63;;;;;;;;;;5031284;28;20043;-60
2020/12/24 09:14:21;;;;;;;14.85;2.08;;;;;;;;;;5030500;28;20115;-60
2020/12/24 09:16:58;;;;;;;11.38;1.77;;;;;;;;;;5026358;28;20079;-60
2020/12/24 09:19:24;;;;;;;12.27;1.50;;;;;;;;;;5030892;28;20975;-60
2020/12/24 09:21:58;;;;;;;9.10;1.77;;;;;;;;;;5031110;28;20378;-60
2020/12/24 09:24:24;;;;;;;10.40;1.80;;;;;;;;;;5030691;28;20029;-60
2020/12/24 09:26:54;;;;;;;12.52;1.77;;;;;;;;;;5031177;28;20026;-60
2020/12/24 09:29:22;;;;;;;11.43;1.50;;;;;;;;;;5015551;28;20029;-60
2020/12/24 09:31:52;;;;;;;11.07;1.50;;;;;;;;;;5025422;28;20128;-60
2020/12/24 09:34:18;;;;;;;11.13;1.83;;;;;;;;;;5029405;28;20032;-61
2020/12/24 09:36:46;;;;;;;17.77;2.28;;;;;;;;;;5030156;28;20037;-60
2020/12/24 09:39:13;;;;;;;13.10;1.52;;;;;;;;;;5030293;28;20034;-60
2020/12/24 09:41:42;;;;;;;9.77;1.42;;;;;;;;;;5030030;28;20029;-60
2020/12/24 09:44:09;;;;;;;13.45;1.63;;;;;;;;;;5030203;28;20041;-60
2020/12/24 09:46:35;;;;;;;7.07;1.45;;;;;;;;;;5031275;28;20037;-60
2020/12/24 09:49:01;;;;;;;9.43;1.58;;;;;;;;;;5028384;28;20021;-60
2020/12/24 09:51:27;;;;;;;12.65;1.45;;;;;;;;;;5030361;28;20037;-60
2020/12/24 09:53:53;;;;;;;10.60;1.42;;;;;;;;;;5030259;28;20022;-60
2020/12/24 09:56:19;;;;;;;12.38;2.03;;;;;;;;;;5030749;28;20367;-60
2020/12/24 09:58:46;;;;;;;14.43;1.98;;;;;;;;;;5030943;28;20030;-60
2020/12/24 10:01:12;;;;;;;9.00;1.23;;;;;;;;;;5029053;28;20640;-60
2020/12/24 10:03:38;;;;;;;16.92;1.45;;;;;;;;;;5023323;28;20034;-60
2020/12/24 10:06:04;;;;;;;16.48;1.88;;;;;;;;;;5026634;28;20100;-60
2020/12/24 10:08:30;;;;;;;14.10;2.13;;;;;;;;;;5028535;28;20091;-60
2020/12/24 10:10:56;;;;;;;18.50;3.00;;;;;;;;;;5027380;28;20044;-60
2020/12/24 10:13:23;;;;;;;14.23;1.88;;;;;;;;;;5028188;28;20112;-60
2020/12/24 10:15:49;;;;;;;10.50;1.27;;;;;;;;;;5028648;28;20030;-59
2020/12/24 10:18:15;;;;;;;15.07;2.97;;;;;;;;;;5028249;28;20021;-59
2020/12/24 10:20:41;;;;;;;10.55;1.65;;;;;;;;;;5027546;28;20033;-59
2020/12/24 10:23:09;;;;;;;12.20;2.38;;;;;;;;;;5026884;28;20025;-60
2020/12/24 10:25:37;;;;;;;14.13;1.98;;;;;;;;;;5027012;28;20036;-60
2020/12/24 10:28:03;;;;;;;12.23;1.60;;;;;;;;;;5026606;28;20172;-60
2020/12/24 10:30:29;;;;;;;13.45;1.42;;;;;;;;;;5026515;28;20506;-61
2020/12/24 10:32:55;;;;;;;14.07;1.90;;;;;;;;;;5026306;28;20036;-61
2020/12/24 10:35:22;;;;;;;11.73;1.50;;;;;;;;;;5026766;28;20082;-60
2020/12/24 10:37:48;;;;;;;14.15;2.03;;;;;;;;;;5030036;28;20398;-60
2020/12/24 10:40:14;;;;;;;7.38;1.23;;;;;;;;;;5031010;28;20124;-60
2020/12/24 10:42:40;;;;;;;19.17;2.20;;;;;;;;;;5029720;28;20025;-60
2020/12/24 10:45:07;;;;;;;19.65;1.83;;;;;;;;;;5029175;28;20394;-60
2020/12/24 10:47:34;;;;;;;13.77;1.88;;;;;;;;;;5031744;28;20030;-60
2020/12/24 10:50:00;;;;;;;18.10;2.10;;;;;;;;;;5029281;28;20410;-60
2020/12/24 10:52:26;;;;;;;12.13;1.90;;;;;;;;;;5032249;28;20103;-60
2020/12/24 10:54:52;;;;;;;13.63;1.70;;;;;;;;;;5031622;28;20389;-60
2020/12/24 10:57:18;;;;;;;16.58;1.95;;;;;;;;;;5030792;28;20517;-60
2020/12/24 10:59:44;;;;;;;11.70;2.00;;;;;;;;;;5031356;28;20025;-60
2020/12/24 11:02:10;;;;;;;12.93;1.52;;;;;;;;;;5027330;28;20064;-61
2020/12/24 11:04:36;;;;;;;6.78;1.13;;;;;;;;;;5030579;28;20025;-60
2020/12/24 11:07:03;;;;;;;10.90;1.33;;;;;;;;;;5034540;28;20032;-59
2020/12/24 11:09:29;;;;;;;11.80;1.40;;;;;;;;;;5030668;28;20079;-58
2020/12/24 11:11:55;;;;;;;13.95;2.22;;;;;;;;;;5030485;28;20033;-60
2020/12/24 11:14:21;;;;;;;13.77;1.67;;;;;;;;;;5029686;28;20036;-60
2020/12/24 11:16:47;;;;;;;11.50;2.58;;;;;;;;;;5031635;28;20034;-60
2020/12/24 11:19:13;;;;;;;10.85;2.05;;;;;;;;;;5031675;28;20471;-60
2020/12/24 11:21:39;;;;;;;11.77;1.40;;;;;;;;;;5031199;28;20112;-60
2020/12/24 11:24:06;;;;;;;9.32;2.20;;;;;;;;;;5032709;28;20545;-61
2020/12/24 11:26:36;;;;;;;12.73;2.00;;;;;;;;;;5030877;28;20033;-61
2020/12/24 11:29:15;;;;;;;5.68;1.27;;;;;;;;;;5030282;28;20025;-60
2020/12/24 11:31:57;;;;;;;19.03;1.60;;;;;;;;;;5038513;28;20416;-60
2020/12/24 11:41:29;;;;;;;11.05;1.38;;;;;;;;;;5040301;28;20032;-60
2020/12/24 11:43:55;;;;;;;14.65;1.92;;;;;;;;;;5033277;28;20040;-59
2020/12/24 11:46:22;;;;;;;16.08;1.40;;;;;;;;;;5033144;28;20040;-60
2020/12/24 11:48:49;;;;;;;8.25;2.03;;;;;;;;;;5032680;28;20532;-60
2020/12/24 11:51:16;;;;;;;9.45;1.33;;;;;;;;;;5032584;28;20034;-60
2020/12/24 11:53:43;;;;;;;8.60;1.55;;;;;;;;;;5032674;28;20037;-60
2020/12/24 11:56:13;;;;;;;13.85;2.03;;;;;;;;;;5032425;28;20029;-60
2020/12/24 11:58:39;;;;;;;11.77;2.28;;;;;;;;;;5033265;28;20044;-60
2020/12/24 12:01:05;;;;;;;12.98;1.48;;;;;;;;;;5030220;28;20430;-60
2020/12/24 12:03:31;;;;;;;9.85;1.58;;;;;;;;;;5030402;28;20068;-59
2020/12/24 12:05:57;;;;;;;9.05;1.13;;;;;;;;;;5031709;28;20107;-60
2020/12/24 12:08:23;;;;;;;10.23;1.35;;;;;;;;;;5032026;28;20398;-60
2020/12/24 12:10:49;;;;;;;13.07;1.63;;;;;;;;;;5032185;28;20061;-60
2020/12/24 12:13:16;;;;;;;8.55;1.10;;;;;;;;;;5031709;28;20105;-60
2020/12/24 12:15:42;;;;;;;7.03;1.05;;;;;;;;;;5032090;28;20079;-59
2020/12/24 12:18:08;;;;;;;14.23;1.55;;;;;;;;;;5032253;28;20023;-60
2020/12/24 12:20:35;;;;;;;9.30;1.65;;;;;;;;;;5032046;28;20140;-59
2020/12/24 12:23:02;;;;;;;10.50;1.50;;;;;;;;;;5031947;28;20040;-60
2020/12/24 12:25:29;;;;;;;15.43;2.13;;;;;;;;;;5031767;28;20103;-60
2020/12/24 12:27:55;;;;;;;8.23;1.27;;;;;;;;;;5031705;28;20029;-60
2020/12/24 12:30:21;;;;;;;14.70;2.53;;;;;;;;;;5031780;28;20072;-60
2020/12/24 12:32:47;;;;;;;7.25;1.42;;;;;;;;;;5031996;28;20025;-60
2020/12/24 12:35:13;;;;;;;10.57;1.58;;;;;;;;;;5031012;28;20114;-60
2020/12/24 12:37:39;;;;;;;13.35;2.03;;;;;;;;;;5032042;28;20029;-60
2020/12/24 12:40:08;;;;;;;12.00;1.58;;;;;;;;;;5031549;28;20044;-60
2020/12/24 12:42:34;;;;;;;7.93;1.58;;;;;;;;;;5031180;28;20024;-60
2020/12/24 12:45:00;;;;;;;6.88;1.33;;;;;;;;;;5031350;28;20025;-59
2020/12/24 12:47:27;;;;;;;6.32;1.00;;;;;;;;;;5031672;28;20121;-61
2020/12/24 12:49:53;;;;;;;12.70;1.38;;;;;;;;;;5030820;28;20022;-60
2020/12/24 12:52:19;;;;;;;13.23;1.15;;;;;;;;;;5027663;28;20061;-59
2020/12/24 12:54:45;;;;;;;8.45;1.30;;;;;;;;;;5028653;28;20463;-59
2020/12/24 12:57:13;;;;;;;9.98;0.98;;;;;;;;;;5029539;28;20566;-59
2020/12/24 12:59:39;;;;;;;11.75;1.30;;;;;;;;;;5029609;28;20060;-60
2020/12/24 13:02:05;;;;;;;10.07;1.70;;;;;;;;;;5028497;28;20053;-61
2020/12/24 13:04:31;;;;;;;9.85;1.20;;;;;;;;;;5029165;28;20104;-60
2020/12/24 13:06:58;;;;;;;7.50;1.33;;;;;;;;;;5029853;28;20065;-60
2020/12/24 13:09:24;;;;;;;7.78;1.08;;;;;;;;;;5030502;28;20055;-59
2020/12/24 13:11:51;;;;;;;3.90;0.80;;;;;;;;;;5029222;28;20128;-60
2020/12/24 13:14:21;;;;;;;11.27;1.65;;;;;;;;;;5030214;28;20017;-60
2020/12/24 13:16:48;;;;;;;7.72;1.48;;;;;;;;;;5028453;28;20033;-59
2020/12/24 13:19:15;;;;;;;7.80;1.33;;;;;;;;;;5030127;28;20382;-60
2020/12/24 13:21:41;;;;;;;8.57;0.95;;;;;;;;;;5029279;28;20037;-60
2020/12/24 13:24:07;;;;;;;10.30;1.10;;;;;;;;;;5029646;28;20112;-60
2020/12/24 13:26:33;;;;;;;10.00;1.02;;;;;;;;;;5030046;28;20025;-63
2020/12/24 13:28:59;;;;;;;6.63;1.00;;;;;;;;;;5032969;28;20052;-60
2020/12/24 13:31:25;;;;;;;4.88;0.80;;;;;;;;;;5037009;28;20486;-60
2020/12/24 13:33:53;;;;;;;3.97;1.13;;;;;;;;;;5029959;28;20025;-60
2020/12/24 13:36:20;;;;;;;3.85;0.75;;;;;;;;;;5030552;28;20029;-59
2020/12/24 13:38:46;;;;;;;8.38;0.85;;;;;;;;;;5030611;28;20093;-60
2020/12/24 13:41:13;;;;;;;4.32;0.63;;;;;;;;;;5030856;28;20035;-60
2020/12/24 13:43:39;;;;;;;6.20;0.93;;;;;;;;;;5031463;28;20029;-60
2020/12/24 13:46:08;;;;;;;8.35;1.10;;;;;;;;;;5030418;28;20044;-57
2020/12/24 13:48:34;;;;;;;6.43;0.80;;;;;;;;;;5030525;28;20434;-51
2020/12/24 13:51:00;;;;;;;4.78;0.80;;;;;;;;;;5030357;28;20044;-54
2020/12/24 13:53:26;;;;;;;5.65;0.75;;;;;;;;;;5030771;28;20037;-54
2020/12/24 13:55:52;;;;;;;4.93;0.70;;;;;;;;;;5030480;28;20033;-54
2020/12/24 13:58:19;;;;;;;8.50;1.50;;;;;;;;;;5030658;28;20186;-56
2020/12/24 14:00:45;;;;;;;6.93;1.10;;;;;;;;;;5029913;28;20403;-59
2020/12/24 14:03:11;;;;;;;3.55;0.60;;;;;;;;;;5028949;28;20029;-55
2020/12/24 14:05:37;;;;;;;5.25;0.98;;;;;;;;;;5030076;28;20032;-55
2020/12/24 14:08:03;;;;;;;7.72;1.17;;;;;;;;;;5030287;28;20037;-57
2020/12/24 14:10:29;;;;;;;7.10;1.40;;;;;;;;;;5030506;28;20463;-55
2020/12/24 14:12:55;;;;;;;5.40;1.10;;;;;;;;;;5031770;28;20406;-57
2020/12/24 14:15:21;;;;;;;5.90;0.95;;;;;;;;;;5031468;28;20025;-58
2020/12/24 14:17:47;;;;;;;6.93;1.23;;;;;;;;;;5033580;28;20067;-58
2020/12/24 14:20:14;;;;;;;4.97;0.98;;;;;;;;;;5033933;28;20017;-57
2020/12/24 14:22:40;;;;;;;5.32;1.10;;;;;;;;;;5034059;28;20029;-57
2020/12/24 14:25:06;;;;;;;4.07;0.75;;;;;;;;;;5032481;28;20053;-63
2020/12/24 14:27:32;;;;;;;6.55;1.45;;;;;;;;;;5033795;28;20056;-64
2020/12/24 14:29:58;;;;;;;5.43;0.90;;;;;;;;;;5041319;28;20031;-63
2020/12/24 14:32:26;;;;;;;9.00;1.10;;;;;;;;;;5033809;28;20034;-60
2020/12/24 14:34:52;;;;;;;11.43;1.88;;;;;;;;;;5034047;28;20026;-60
2020/12/24 14:37:18;;;;;;;10.40;2.25;;;;;;;;;;5039150;28;20033;-60
2020/12/24 14:39:44;;;;;;;7.30;1.30;;;;;;;;;;5042320;28;20438;-60
2020/12/24 14:42:10;;;;;;;5.55;1.30;;;;;;;;;;5041390;28;20087;-60
2020/12/24 14:44:42;;;;;;;10.38;0.98;;;;;;;;;;5041610;28;20013;-60
2020/12/24 14:47:14;;;;;;;5.07;0.98;;;;;;;;;;5041431;28;20029;-60
2020/12/24 14:49:40;;;;;;;9.43;1.20;;;;;;;;;;5034171;28;20017;-61
2020/12/24 14:52:07;;;;;;;6.05;1.67;;;;;;;;;;5033849;28;20043;-60
2020/12/24 14:54:33;;;;;;;5.82;0.93;;;;;;;;;;5033738;28;20028;-60
2020/12/24 14:57:02;;;;;;;6.40;1.17;;;;;;;;;;5033740;28;20603;-60
2020/12/24 14:59:28;;;;;;;8.30;0.90;;;;;;;;;;5033675;28;20029;-61
2020/12/24 15:01:55;;;;;;;7.05;0.90;;;;;;;;;;5032972;28;20080;-60
2020/12/24 15:04:21;;;;;;;7.45;1.02;;;;;;;;;;5033595;28;20140;-60
2020/12/24 15:06:51;;;;;;;8.02;1.00;;;;;;;;;;5033456;28;20018;-61
2020/12/24 15:09:17;;;;;;;6.95;1.38;;;;;;;;;;5033025;28;20054;-60
2020/12/24 15:11:43;;;;;;;9.00;1.00;;;;;;;;;;5032980;28;20505;-61
2020/12/24 15:14:09;;;;;;;9.35;1.50;;;;;;;;;;5033122;28;20021;-60
2020/12/24 15:16:35;;;;;;;19.42;1.50;;;;;;;;;;5034254;28;20321;-60
2020/12/24 15:19:01;;;;;;;11.55;1.95;;;;;;;;;;5033037;28;20439;-60
2020/12/24 15:21:27;;;;;;;9.52;1.67;;;;;;;;;;5033253;28;20029;-61
2020/12/24 15:23:53;;;;;;;7.22;1.05;;;;;;;;;;5032795;28;20072;-60
2020/12/24 15:26:20;;;;;;;15.27;1.63;;;;;;;;;;5033332;28;20025;-61
2020/12/24 15:28:46;;;;;;;9.00;1.70;;;;;;;;;;5033883;28;20025;-60
2020/12/24 15:31:12;;;;;;;7.97;1.10;;;;;;;;;;5031659;28;20510;-61
2020/12/24 15:33:38;;;;;;;6.40;1.55;;;;;;;;;;5032914;28;20423;-61
2020/12/24 15:36:06;;;;;;;11.52;1.20;;;;;;;;;;5032920;28;20026;-61
2020/12/24 15:38:32;;;;;;;9.07;1.88;;;;;;;;;;5032893;28;20116;-61
2020/12/24 15:40:59;;;;;;;9.85;1.58;;;;;;;;;;5031304;28;20034;-60
2020/12/24 15:43:25;;;;;;;8.73;1.40;;;;;;;;;;5033183;28;20048;-61
2020/12/24 15:45:51;;;;;;;6.88;1.10;;;;;;;;;;5032638;28;20037;-60
2020/12/24 15:48:17;;;;;;;7.85;1.30;;;;;;;;;;5032530;28;20014;-61
2020/12/24 15:50:43;;;;;;;15.13;1.85;;;;;;;;;;5030841;28;20033;-60
2020/12/24 15:53:09;;;;;;;12.48;1.92;;;;;;;;;;5031834;28;20112;-61
2020/12/24 15:55:37;;;;;;;9.20;1.92;;;;;;;;;;5032783;28;20410;-61
2020/12/24 15:58:03;;;;;;;12.50;1.75;;;;;;;;;;5031293;28;20036;-60
2020/12/24 16:00:29;;;;;;;14.20;1.33;;;;;;;;;;5030558;28;20041;-60
2020/12/24 16:02:55;;;;;;;9.95;1.80;;;;;;;;;;5029970;28;20021;-61
2020/12/24 16:05:21;;;;;;;8.77;1.42;;;;;;;;;;5024205;28;20037;-60
2020/12/24 16:07:48;;;;;;;6.28;1.30;;;;;;;;;;5030642;28;20025;-60
2020/12/24 16:10:14;;;;;;;9.93;2.53;;;;;;;;;;5030053;28;20466;-60
2020/12/24 16:12:40;;;;;;;9.50;1.50;;;;;;;;;;5029958;28;20039;-61
2020/12/24 16:15:06;;;;;;;13.35;1.85;;;;;;;;;;5029253;28;20333;-60
2020/12/24 16:17:32;;;;;;;7.55;1.40;;;;;;;;;;5029470;28;20029;-63
2020/12/24 16:19:58;;;;;;;9.63;1.30;;;;;;;;;;5028005;28;20057;-62
2020/12/24 16:22:24;;;;;;;9.43;1.90;;;;;;;;;;5029555;28;20399;-63
2020/12/24 16:24:50;;;;;;;6.28;1.20;;;;;;;;;;5029572;28;20501;-63
2020/12/24 16:27:17;;;;;;;8.52;1.83;;;;;;;;;;5029474;28;20450;-64
2020/12/24 16:29:43;;;;;;;8.73;1.30;;;;;;;;;;5029300;28;20124;-63
2020/12/24 16:32:14;;;;;;;11.75;1.45;;;;;;;;;;5027978;28;20510;-63
2020/12/24 16:34:40;;;;;;;15.45;1.67;;;;;;;;;;5027285;28;20079;-63
2020/12/24 16:37:06;;;;;;;13.45;1.80;;;;;;;;;;5027245;28;20514;-64
2020/12/24 16:39:32;;;;;;;15.60;1.50;;;;;;;;;;5029467;28;20087;-63
2020/12/24 16:42:01;;;;;;;10.48;1.83;;;;;;;;;;5029185;28;20024;-63
2020/12/24 16:44:28;;;;;;;12.98;2.00;;;;;;;;;;5028844;28;20029;-63
2020/12/24 16:46:57;;;;;;;14.15;2.15;;;;;;;;;;5029343;28;20112;-63
2020/12/24 16:49:23;;;;;;;10.70;2.33;;;;;;;;;;5029363;28;20701;-63
2020/12/24 16:51:49;;;;;;;7.18;1.60;;;;;;;;;;5028899;28;20536;-62
2020/12/24 16:54:15;;;;;;;4.85;1.10;;;;;;;;;;5024657;28;20084;-58
2020/12/24 16:56:41;;;;;;;6.85;1.20;;;;;;;;;;5026273;28;20022;-57
2020/12/24 16:59:08;;;;;;;6.93;1.63;;;;;;;;;;5026879;28;20048;-56
2020/12/24 17:01:34;;;;;;;12.32;1.25;;;;;;;;;;5028261;28;20334;-59
2020/12/24 17:04:00;;;;;;;4.43;0.95;;;;;;;;;;5029799;28;20045;-58
2020/12/24 17:06:26;;;;;;;5.28;1.25;;;;;;;;;;5031281;28;20025;-58
2020/12/24 17:08:52;;;;;;;11.40;1.67;;;;;;;;;;5029630;28;20033;-57
2020/12/24 17:11:22;;;;;;;10.52;1.60;;;;;;;;;;5030084;28;20037;-58
2020/12/24 17:13:48;;;;;;;16.85;1.88;;;;;;;;;;5030883;28;20112;-58
2020/12/24 17:16:21;;;;;;;5.43;1.02;;;;;;;;;;5031204;28;20532;-58
2020/12/24 17:18:55;;;;;;;4.35;0.95;;;;;;;;;;5031044;28;20041;-58
2020/12/24 17:21:22;;;;;;;5.65;1.30;;;;;;;;;;5031024;28;20025;-57
2020/12/24 17:23:48;;;;;;;7.95;1.42;;;;;;;;;;5033081;28;20025;-56
2020/12/24 17:26:17;;;;;;;8.35;1.10;;;;;;;;;;5037360;28;20482;-56
2020/12/24 17:28:44;;;;;;;5.15;0.95;;;;;;;;;;5034044;28;20037;-58
2020/12/24 17:31:10;;;;;;;4.18;0.98;;;;;;;;;;5030933;28;20064;-57
2020/12/24 17:33:36;;;;;;;6.43;0.90;;;;;;;;;;5030866;28;20074;-58
2020/12/24 17:36:02;;;;;;;6.40;1.02;;;;;;;;;;5030063;28;20140;-58
2020/12/24 17:38:28;;;;;;;7.45;1.10;;;;;;;;;;5030843;28;20417;-58
2020/12/24 17:40:54;;;;;;;4.13;1.17;;;;;;;;;;5031345;28;20037;-58
2020/12/24 17:43:20;;;;;;;7.38;1.45;;;;;;;;;;5030798;28;20045;-59
2020/12/24 17:45:46;;;;;;;8.23;1.23;;;;;;;;;;5030666;28;20032;-58
2020/12/24 17:48:15;;;;;;;7.78;1.25;;;;;;;;;;5030663;28;20018;-58
2020/12/24 17:50:44;;;;;;;14.48;2.13;;;;;;;;;;5030692;28;20115;-58
2020/12/24 17:53:10;;;;;;;8.60;2.10;;;;;;;;;;5029763;28;20032;-56
2020/12/24 17:55:37;;;;;;;7.55;2.30;;;;;;;;;;5031269;28;20403;-57
2020/12/24 17:58:03;;;;;;;10.75;3.20;;;;;;;;;;5030485;28;20026;-59
2020/12/24 18:00:30;;;;;;;9.75;3.25;;;;;;;;;;5030353;28;20053;-58
2020/12/24 18:02:56;;;;;;;8.88;2.50;;;;;;;;;;5030345;28;20077;-58
2020/12/24 18:05:22;;;;;;;7.15;1.90;;;;;;;;;;5015124;28;20463;-58
2020/12/24 18:07:48;;;;;;;12.70;4.55;;;;;;;;;;5031324;28;20033;-59
2020/12/24 18:10:14;;;;;;;9.48;2.08;;;;;;;;;;5030044;28;20714;-59
2020/12/24 18:12:40;;;;;;;13.07;3.22;;;;;;;;;;5030208;28;20045;-59
2020/12/24 18:15:06;;;;;;;7.93;1.77;;;;;;;;;;5030405;28;20079;-59
2020/12/24 18:17:33;;;;;;;13.00;1.33;;;;;;;;;;5030587;28;20029;-59
2020/12/24 18:19:59;;;;;;;11.10;1.58;;;;;;;;;;5030310;28;20029;-56
2020/12/24 18:22:25;;;;;;;7.40;1.13;;;;;;;;;;5027748;28;20044;-55
2020/12/24 18:24:51;;;;;;;11.07;1.20;;;;;;;;;;5029505;28;20060;-53
2020/12/24 18:27:17;;;;;;;6.07;1.40;;;;;;;;;;5029989;28;20078;-58
2020/12/24 18:29:43;;;;;;;11.43;1.13;;;;;;;;;;5029894;28;20067;-59
2020/12/24 18:32:09;;;;;;;4.10;0.90;;;;;;;;;;5030486;28;20384;-59
2020/12/24 18:34:36;;;;;;;9.90;1.23;;;;;;;;;;5031012;28;20029;-60
2020/12/24 18:37:02;;;;;;;13.35;1.92;;;;;;;;;;5030277;28;20057;-60
2020/12/24 18:39:29;;;;;;;8.98;1.23;;;;;;;;;;5030485;28;20103;-60
2020/12/24 18:41:55;;;;;;;7.25;1.10;;;;;;;;;;5030273;28;20021;-60
2020/12/24 18:44:23;;;;;;;5.10;0.90;;;;;;;;;;5044907;28;20490;-60
2020/12/24 18:46:52;;;;;;;2.03;0.70;;;;;;;;;;5030634;28;20032;-60
2020/12/24 18:49:20;;;;;;;4.88;1.05;;;;;;;;;;5030419;28;20030;-60
2020/12/24 18:51:46;;;;;;;3.30;0.88;;;;;;;;;;5030276;28;20045;-61
2020/12/24 18:54:12;;;;;;;8.57;1.00;;;;;;;;;;5030229;28;20442;-60
2020/12/24 18:56:38;;;;;;;3.28;0.80;;;;;;;;;;5030089;28;20049;-60
2020/12/24 18:59:04;;;;;;;13.10;1.20;;;;;;;;;;5032951;28;20062;-60
2020/12/24 19:01:33;;;;;;;6.68;0.80;;;;;;;;;;5032937;28;20049;-60
2020/12/24 19:04:00;;;;;;;10.70;1.00;;;;;;;;;;5033697;28;20037;-59
2020/12/24 19:06:26;;;;;;;6.97;1.40;;;;;;;;;;5033662;28;20080;-60
2020/12/24 19:08:52;;;;;;;8.35;1.20;;;;;;;;;;5033539;28;20030;-60
2020/12/24 19:11:25;;;;;;;5.63;1.20;;;;;;;;;;5033300;28;20406;-60
2020/12/24 19:13:51;;;;;;;5.43;0.82;;;;;;;;;;5029913;28;20028;-60
2020/12/24 19:16:17;;;;;;;7.40;1.13;;;;;;;;;;5033513;28;20087;-60
2020/12/24 19:18:43;;;;;;;4.07;0.90;;;;;;;;;;5033335;28;20037;-60
2020/12/24 19:21:14;;;;;;;8.52;1.30;;;;;;;;;;5033237;28;20032;-59
2020/12/24 19:23:40;;;;;;;8.80;1.17;;;;;;;;;;5033087;28;20036;-60
2020/12/24 19:26:12;;;;;;;5.07;1.00;;;;;;;;;;5033681;28;20032;-59
2020/12/24 19:28:38;;;;;;;7.70;1.08;;;;;;;;;;5032345;28;20041;-59
2020/12/24 19:31:05;;;;;;;6.90;1.40;;;;;;;;;;5033149;28;20052;-60
2020/12/24 19:33:31;;;;;;;6.90;1.38;;;;;;;;;;5033091;28;20017;-60
2020/12/24 19:35:57;;;;;;;8.43;1.10;;;;;;;;;;5031240;28;20052;-59
2020/12/24 19:38:24;;;;;;;7.45;1.35;;;;;;;;;;5039467;28;20437;-59
2020/12/24 19:40:50;;;;;;;10.98;1.00;;;;;;;;;;5034046;28;20086;-58
2020/12/24 19:43:16;;;;;;;9.15;1.00;;;;;;;;;;5033039;28;20233;-58
2020/12/24 19:45:42;;;;;;;6.13;1.20;;;;;;;;;;5033781;28;20041;-59
2020/12/24 19:48:08;;;;;;;5.13;0.82;;;;;;;;;;5038243;28;20048;-59
2020/12/24 19:50:34;;;;;;;10.13;3.38;;;;;;;;;;5037952;28;20048;-59
2020/12/24 19:53:00;;;;;;;8.90;1.38;;;;;;;;;;5042192;28;20078;-59
2020/12/24 19:55:26;;;;;;;8.98;1.02;;;;;;;;;;5036426;28;20486;-59
2020/12/24 19:57:54;;;;;;;6.55;1.40;;;;;;;;;;5029517;28;20021;-58
2020/12/24 20:00:20;;;;;;;6.18;1.10;;;;;;;;;;5029515;28;20033;-59
2020/12/24 20:02:47;;;;;;;6.90;0.90;;;;;;;;;;5030136;28;20052;-59
2020/12/24 20:05:13;;;;;;;6.55;1.17;;;;;;;;;;5030449;28;20021;-59
2020/12/24 20:07:39;;;;;;;3.88;1.40;;;;;;;;;;5030887;28;20479;-59
2020/12/24 20:10:05;;;;;;;7.10;0.95;;;;;;;;;;5029701;28;20025;-59
2020/12/24 20:12:40;;;;;;;4.80;1.02;;;;;;;;;;5033285;28;20060;-59
2020/12/24 20:15:06;;;;;;;4.05;0.60;;;;;;;;;;5028952;28;20126;-59
2020/12/24 20:17:34;;;;;;;5.88;0.98;;;;;;;;;;5031464;28;20588;-59
2020/12/24 20:20:00;;;;;;;8.68;1.17;;;;;;;;;;5031661;28;20037;-60
2020/12/24 20:22:26;;;;;;;11.65;1.60;;;;;;;;;;5041293;28;20029;-58
2020/12/24 20:24:52;;;;;;;11.05;1.20;;;;;;;;;;5035142;28;20079;-61
2020/12/24 20:27:18;;;;;;;6.95;1.10;;;;;;;;;;5028848;28;20079;-60
2020/12/24 20:29:44;;;;;;;4.00;1.35;;;;;;;;;;5028297;28;20053;-60
2020/12/24 20:32:10;;;;;;;10.32;1.25;;;;;;;;;;5027810;28;20029;-61
2020/12/24 20:34:36;;;;;;;9.07;1.90;;;;;;;;;;5029333;28;20494;-60
2020/12/24 20:37:03;;;;;;;7.53;1.67;;;;;;;;;;5028619;28;20037;-60
2020/12/24 20:39:29;;;;;;;4.43;0.85;;;;;;;;;;5031505;28;20053;-60
2020/12/24 20:41:55;;;;;;;6.95;1.05;;;;;;;;;;5033087;28;20072;-61
2020/12/24 20:44:21;;;;;;;8.40;1.20;;;;;;;;;;5029941;28;20132;-60
2020/12/24 20:46:47;;;;;;;6.82;1.23;;;;;;;;;;5030869;28;20025;-60